createdAt,value
2023-07-14T00:01:46.319Z,18.30
2023-07-14T00:04:19.299Z,18.30
2023-07-14T00:06:48.289Z,18.30
2023-07-14T00:09:24.828Z,18.20
2023-07-14T00:11:53.092Z,18.20
2023-07-14T00:14:21.346Z,18.30
2023-07-14T00:16:49.988Z,18.30
2023-07-14T00:19:21.197Z,18.20
2023-07-14T00:21:51.039Z,18.20
2023-07-14T00:24:22.353Z,18.20
2023-07-14T00:26:54.621Z,18.30
2023-07-14T00:29:38.798Z,18.20
2023-07-14T00:32:14.760Z,18.20
2023-07-14T00:34:45.718Z,18.30
2023-07-14T00:37:14.421Z,18.30
2023-07-14T00:39:44.770Z,18.30
2023-07-14T00:42:15.238Z,18.30
2023-07-14T00:44:44.865Z,18.30
2023-07-14T00:47:20.673Z,18.30
2023-07-14T00:49:53.734Z,18.30
2023-07-14T00:52:29.552Z,18.30
2023-07-14T00:54:57.592Z,18.30
2023-07-14T00:57:29.754Z,18.20
2023-07-14T01:00:01.994Z,18.30
2023-07-14T01:02:30.891Z,18.30
2023-07-14T01:05:05.807Z,18.30
2023-07-14T01:07:38.535Z,18.30
2023-07-14T01:10:09.592Z,18.30
2023-07-14T01:12:41.875Z,18.30
2023-07-14T01:15:10.466Z,18.30
2023-07-14T01:17:39.475Z,18.30
2023-07-14T01:20:10.895Z,18.30
2023-07-14T01:22:45.416Z,18.30
2023-07-14T01:25:23.432Z,18.30
2023-07-14T01:27:53.110Z,18.30
2023-07-14T01:30:21.718Z,18.30
2023-07-14T01:32:52.539Z,18.30
2023-07-14T01:35:27.014Z,18.30
2023-07-14T01:37:55.342Z,18.30
2023-07-14T01:40:23.723Z,18.30
2023-07-14T01:42:56.861Z,18.30
2023-07-14T01:45:27.438Z,18.20
2023-07-14T01:47:59.265Z,18.20
2023-07-14T01:50:28.698Z,18.20
2023-07-14T01:53:01.898Z,18.20
2023-07-14T01:55:35.712Z,18.20
2023-07-14T01:58:10.184Z,18.20
2023-07-14T02:00:40.217Z,18.20
2023-07-14T02:03:12.048Z,18.20
2023-07-14T02:05:40.788Z,18.10
2023-07-14T02:08:15.200Z,18.20
2023-07-14T02:10:43.683Z,18.10
2023-07-14T02:13:14.682Z,18.10
2023-07-14T02:15:42.997Z,18.10
2023-07-14T02:18:17.005Z,18.10
2023-07-14T02:20:48.259Z,18.10
2023-07-14T02:23:20.550Z,18.10
2023-07-14T02:25:53.975Z,18.00
2023-07-14T02:28:23.510Z,18.00
2023-07-14T02:30:55.743Z,18.10
2023-07-14T02:33:27.786Z,18.10
2023-07-14T02:36:02.353Z,18.10
2023-07-14T02:38:30.957Z,18.10
2023-07-14T02:41:07.675Z,18.20
2023-07-14T02:43:37.186Z,18.20
2023-07-14T02:46:12.145Z,18.20
2023-07-14T02:48:42.674Z,18.20
2023-07-14T02:51:11.770Z,18.20
2023-07-14T02:53:40.877Z,18.20
2023-07-14T02:56:09.013Z,18.20
2023-07-14T02:58:38.550Z,18.20
2023-07-14T03:01:08.771Z,18.20
2023-07-14T03:03:38.886Z,18.10
2023-07-14T03:06:07.177Z,18.20
2023-07-14T03:08:36.004Z,18.10
2023-07-14T03:11:04.358Z,18.10
2023-07-14T03:13:32.482Z,18.10
2023-07-14T03:16:02.018Z,18.00
2023-07-14T03:18:30.256Z,18.00
2023-07-14T03:20:58.967Z,18.00
2023-07-14T03:23:27.133Z,18.00
2023-07-14T03:25:56.062Z,18.00
2023-07-14T03:28:24.393Z,18.00
2023-07-14T03:30:52.611Z,18.00
2023-07-14T03:33:22.335Z,18.00
2023-07-14T03:35:50.584Z,17.90
2023-07-14T03:38:18.832Z,17.90
2023-07-14T03:40:46.996Z,17.90
2023-07-14T03:43:15.119Z,17.90
2023-07-14T03:45:43.252Z,17.90
2023-07-14T03:48:11.321Z,17.90
2023-07-14T03:50:40.902Z,17.90
2023-07-14T03:53:08.989Z,17.90
2023-07-14T03:55:37.128Z,17.90
2023-07-14T03:58:05.753Z,18.00
2023-07-14T04:00:34.779Z,17.90
2023-07-14T04:03:02.967Z,17.90
2023-07-14T04:05:31.203Z,18.00
2023-07-14T04:08:00.937Z,17.90
2023-07-14T04:10:29.566Z,18.00
2023-07-14T04:13:00.376Z,18.00
2023-07-14T04:15:28.550Z,18.00
2023-07-14T04:17:56.717Z,18.00
2023-07-14T04:20:24.897Z,18.10
2023-07-14T04:22:53.115Z,18.10
2023-07-14T04:25:22.988Z,18.20
2023-07-14T04:27:53.764Z,18.20
2023-07-14T04:30:22.119Z,18.20
2023-07-14T04:32:51.457Z,18.30
2023-07-14T04:35:19.632Z,18.30
2023-07-14T04:37:47.777Z,18.30
2023-07-14T04:40:33.807Z,18.30
2023-07-14T04:43:05.638Z,18.30
2023-07-14T04:45:38.007Z,18.30
2023-07-14T04:48:06.671Z,18.40
2023-07-14T04:50:35.677Z,18.40
2023-07-14T04:53:06.634Z,18.40
2023-07-14T04:55:37.601Z,18.40
2023-07-14T04:58:07.414Z,18.40
2023-07-14T05:00:37.218Z,18.50
2023-07-14T05:03:06.917Z,18.50
2023-07-14T05:05:35.380Z,18.50
2023-07-14T05:08:03.675Z,18.50
2023-07-14T05:10:33.805Z,18.60
2023-07-14T05:13:02.996Z,18.60
2023-07-14T05:15:32.576Z,18.70
2023-07-14T05:18:00.803Z,18.70
2023-07-14T05:20:30.164Z,18.80
2023-07-14T05:22:58.425Z,18.80
2023-07-14T05:25:26.601Z,18.80
2023-07-14T05:27:54.661Z,18.90
2023-07-14T05:30:23.537Z,18.90
2023-07-14T05:32:53.000Z,18.90
2023-07-14T05:35:21.202Z,19.00
2023-07-14T05:37:49.397Z,19.00
2023-07-14T05:40:19.073Z,19.00
2023-07-14T05:42:48.220Z,19.10
2023-07-14T05:45:16.686Z,19.10
2023-07-14T05:47:47.831Z,19.10
2023-07-14T05:50:18.251Z,19.10
2023-07-14T05:52:47.529Z,19.10
2023-07-14T05:55:15.826Z,19.10
2023-07-14T05:57:45.128Z,19.20
2023-07-14T06:00:17.831Z,19.20
2023-07-14T06:02:49.052Z,19.20
2023-07-14T06:05:20.876Z,19.20
2023-07-14T06:07:49.160Z,19.20
2023-07-14T06:10:17.984Z,19.20
2023-07-14T06:12:46.120Z,19.30
2023-07-14T06:15:14.181Z,19.30
2023-07-14T06:17:42.298Z,19.30
2023-07-14T06:20:13.028Z,19.40
2023-07-14T06:22:43.506Z,19.40
2023-07-14T06:25:11.575Z,19.40
2023-07-14T06:27:39.637Z,19.30
2023-07-14T06:30:09.929Z,19.40
2023-07-14T06:32:40.182Z,19.40
2023-07-14T06:35:11.160Z,19.50
2023-07-14T06:37:39.724Z,19.60
2023-07-14T06:40:10.722Z,19.60
2023-07-14T06:42:39.142Z,19.70
2023-07-14T06:45:08.353Z,19.70
2023-07-14T06:47:36.487Z,19.60
2023-07-14T06:50:05.641Z,19.50
2023-07-14T06:52:34.421Z,19.50
2023-07-14T06:55:02.569Z,19.50
2023-07-14T06:57:32.154Z,19.50
2023-07-14T07:00:00.365Z,19.60
2023-07-14T07:02:29.668Z,19.60
2023-07-14T07:04:57.875Z,19.70
2023-07-14T07:07:26.036Z,19.80
2023-07-14T07:09:56.361Z,19.90
2023-07-14T07:12:24.739Z,20.00
2023-07-14T07:14:54.154Z,20.10
2023-07-14T07:17:22.298Z,20.00
2023-07-14T07:19:50.492Z,20.10
2023-07-14T07:22:18.722Z,20.20
2023-07-14T07:24:46.819Z,20.30
2023-07-14T07:27:14.937Z,20.40
2023-07-14T07:29:43.996Z,20.50
2023-07-14T07:32:13.771Z,20.40
2023-07-14T07:34:41.955Z,20.50
2023-07-14T07:37:10.060Z,20.60
2023-07-14T07:39:38.363Z,20.60
2023-07-14T07:42:07.521Z,20.70
2023-07-14T07:44:36.098Z,20.70
2023-07-14T07:47:04.448Z,20.70
2023-07-14T07:49:33.942Z,20.70
2023-07-14T07:52:02.185Z,20.70
2023-07-14T07:54:30.393Z,20.80
2023-07-14T07:56:58.474Z,20.70
2023-07-14T07:59:26.634Z,20.70
2023-07-14T08:01:54.773Z,20.80
2023-07-14T08:04:23.226Z,20.80
2023-07-14T08:06:52.840Z,20.90
2023-07-14T08:09:21.578Z,20.90
2023-07-14T08:11:50.072Z,20.90
2023-07-14T08:14:19.887Z,21.00
2023-07-14T08:16:48.140Z,21.10
2023-07-14T08:19:16.359Z,21.10
2023-07-14T08:21:44.539Z,21.10
2023-07-14T08:24:14.226Z,21.00
2023-07-14T08:26:42.876Z,20.90
2023-07-14T08:29:11.150Z,20.90
2023-07-14T08:31:39.293Z,20.90
2023-07-14T08:34:08.545Z,21.10
2023-07-14T08:36:38.178Z,21.20
2023-07-14T08:39:07.393Z,21.20
2023-07-14T08:41:41.841Z,21.30
2023-07-14T08:44:29.934Z,21.50
2023-07-14T08:47:08.078Z,21.60
2023-07-14T08:49:41.643Z,21.70
2023-07-14T08:52:17.530Z,21.80
2023-07-14T08:54:49.759Z,21.90
2023-07-14T08:57:25.648Z,22.00
2023-07-14T08:59:57.680Z,22.00
2023-07-14T09:02:33.175Z,21.90
2023-07-14T09:05:02.691Z,21.90
2023-07-14T09:07:30.997Z,22.00
2023-07-14T09:09:59.339Z,22.10
2023-07-14T09:12:37.872Z,22.10
2023-07-14T09:15:09.600Z,21.90
2023-07-14T09:18:01.275Z,21.70
2023-07-14T09:21:00.154Z,21.90
2023-07-14T09:23:50.192Z,21.80
2023-07-14T09:26:26.437Z,21.90
2023-07-14T09:28:58.760Z,21.70
2023-07-14T09:31:39.577Z,21.70
2023-07-14T09:34:15.460Z,21.90
2023-07-14T09:36:44.226Z,22.00
2023-07-14T09:39:19.309Z,22.00
2023-07-14T09:41:49.286Z,22.10
2023-07-14T09:44:19.033Z,22.20
2023-07-14T09:46:49.745Z,22.30
2023-07-14T09:49:27.002Z,22.50
2023-07-14T09:52:21.972Z,22.80
2023-07-14T09:54:53.692Z,22.70
2023-07-14T09:57:38.832Z,22.70
2023-07-14T10:00:22.017Z,22.90
2023-07-14T10:03:04.662Z,23.10
2023-07-14T10:05:38.573Z,23.10
2023-07-14T10:08:17.936Z,23.20
2023-07-14T10:10:47.037Z,23.30
2023-07-14T10:13:23.153Z,23.40
2023-07-14T10:15:59.646Z,23.60
2023-07-14T10:18:29.405Z,23.60
2023-07-14T10:21:01.900Z,23.80
2023-07-14T10:23:30.312Z,23.80
2023-07-14T10:25:58.398Z,23.60
2023-07-14T10:28:30.416Z,23.60
2023-07-14T10:31:06.984Z,23.80
2023-07-14T10:33:44.823Z,23.90
2023-07-14T10:36:19.404Z,24.10
2023-07-14T10:38:54.032Z,24.00
2023-07-14T10:41:24.432Z,24.20
2023-07-14T10:43:58.070Z,24.20
2023-07-14T10:46:32.578Z,24.40
2023-07-14T10:49:09.974Z,24.50
2023-07-14T10:51:43.159Z,24.70
2023-07-14T10:54:17.929Z,24.80
2023-07-14T10:56:50.501Z,24.90
2023-07-14T10:59:26.510Z,25.00
2023-07-14T11:02:07.104Z,24.90
2023-07-14T11:04:40.277Z,24.60
2023-07-14T11:07:16.725Z,24.30
2023-07-14T11:09:44.894Z,24.50
2023-07-14T11:12:23.723Z,24.70
2023-07-14T11:14:58.330Z,24.80
2023-07-14T11:17:34.282Z,24.70
2023-07-14T11:20:15.062Z,24.50
2023-07-14T11:23:01.074Z,24.50
2023-07-14T11:25:35.716Z,24.20
2023-07-14T11:28:18.699Z,24.30
2023-07-14T11:30:52.677Z,24.70
2023-07-14T11:33:28.473Z,24.90
2023-07-14T11:36:05.273Z,24.70
2023-07-14T11:38:42.706Z,24.80
2023-07-14T11:41:11.346Z,25.00
2023-07-14T11:43:40.403Z,25.20
2023-07-14T11:46:14.773Z,25.40
2023-07-14T11:49:00.668Z,25.40
2023-07-14T11:51:43.490Z,25.40
2023-07-14T11:54:18.986Z,25.40
2023-07-14T11:57:01.488Z,25.50
2023-07-14T11:59:31.609Z,25.60
2023-07-14T12:02:30.416Z,25.70
2023-07-14T12:05:03.058Z,25.80
2023-07-14T12:07:31.591Z,25.90
2023-07-14T12:10:02.959Z,26.00
2023-07-14T12:12:34.501Z,26.10
2023-07-14T12:15:04.056Z,26.20
2023-07-14T12:17:49.961Z,26.20
2023-07-14T12:20:38.729Z,26.20
2023-07-14T12:23:11.899Z,26.30
2023-07-14T12:25:44.952Z,26.30
2023-07-14T12:28:22.120Z,26.30
2023-07-14T12:30:52.648Z,26.30
2023-07-14T12:33:22.921Z,26.30
2023-07-14T12:35:53.567Z,26.50
2023-07-14T12:38:24.122Z,26.60
2023-07-14T12:40:55.297Z,26.60
2023-07-14T12:43:29.244Z,26.70
2023-07-14T12:45:58.762Z,26.70
2023-07-14T12:48:29.296Z,26.80
2023-07-14T12:51:00.378Z,26.90
2023-07-14T12:53:32.875Z,26.90
2023-07-14T12:56:07.081Z,27.00
2023-07-14T12:58:36.197Z,27.20
2023-07-14T13:01:05.833Z,27.30
2023-07-14T13:03:38.242Z,27.30
2023-07-14T13:06:07.840Z,27.40
2023-07-14T13:08:36.090Z,27.50
2023-07-14T13:11:09.673Z,27.60
2023-07-14T13:13:41.623Z,27.60
2023-07-14T13:16:13.478Z,27.60
2023-07-14T13:18:41.845Z,27.80
2023-07-14T13:21:36.025Z,27.90
2023-07-14T13:24:16.372Z,28.00
2023-07-14T13:26:51.641Z,28.00
2023-07-14T13:29:24.414Z,28.10
2023-07-14T13:31:58.201Z,28.20
2023-07-14T13:34:30.274Z,28.20
2023-07-14T13:37:04.834Z,28.10
2023-07-14T13:39:37.753Z,28.30
2023-07-14T13:42:08.761Z,28.40
2023-07-14T13:44:45.012Z,28.30
2023-07-14T13:47:19.280Z,28.30
2023-07-14T13:49:48.433Z,28.30
2023-07-14T13:52:20.726Z,28.10
2023-07-14T13:54:50.713Z,28.20
2023-07-14T13:57:19.114Z,28.20
2023-07-14T13:59:48.036Z,28.30
2023-07-14T14:02:31.383Z,28.20
2023-07-14T14:04:59.569Z,28.10
2023-07-14T14:07:29.096Z,28.10
2023-07-14T14:09:57.234Z,28.10
2023-07-14T14:12:25.362Z,28.10
2023-07-14T14:14:53.494Z,28.00
2023-07-14T14:17:36.694Z,28.00
2023-07-14T14:20:08.950Z,27.90
2023-07-14T14:22:38.531Z,27.80
2023-07-14T14:25:13.480Z,27.80
2023-07-14T14:27:41.679Z,27.80
2023-07-14T14:30:11.200Z,27.80
2023-07-14T14:32:40.205Z,28.00
2023-07-14T14:35:26.209Z,28.10
2023-07-14T14:37:57.019Z,28.20
2023-07-14T14:40:25.466Z,28.50
2023-07-14T14:42:55.536Z,29.30
2023-07-14T14:45:26.011Z,30.40
2023-07-14T14:47:54.945Z,30.90
2023-07-14T14:50:26.105Z,31.70
2023-07-14T14:52:55.684Z,32.50
2023-07-14T14:55:24.074Z,32.40
2023-07-14T14:57:55.308Z,32.90
2023-07-14T15:00:26.226Z,33.70
2023-07-14T15:02:55.221Z,34.30
2023-07-14T15:05:24.692Z,35.30
2023-07-14T15:07:56.397Z,35.90
2023-07-14T15:10:27.508Z,36.50
2023-07-14T15:12:56.234Z,36.50
2023-07-14T15:15:29.477Z,37.00
2023-07-14T15:17:58.606Z,37.10
2023-07-14T15:20:27.345Z,37.40
2023-07-14T15:22:57.433Z,37.60
2023-07-14T15:25:26.510Z,37.50
2023-07-14T15:27:55.142Z,37.70
2023-07-14T15:30:28.143Z,38.20
2023-07-14T15:32:58.132Z,38.60
2023-07-14T15:35:27.946Z,38.50
2023-07-14T15:37:59.074Z,37.90
2023-07-14T15:40:29.307Z,37.70
2023-07-14T15:42:57.878Z,38.30
2023-07-14T15:45:28.241Z,39.10
2023-07-14T15:47:56.959Z,39.30
2023-07-14T15:50:27.437Z,38.80
2023-07-14T15:52:58.620Z,38.90
2023-07-14T15:55:30.922Z,38.90
2023-07-14T15:57:59.045Z,39.20
2023-07-14T16:00:27.810Z,39.20
2023-07-14T16:02:56.075Z,38.60
2023-07-14T16:05:24.470Z,38.00
2023-07-14T16:07:55.802Z,37.70
2023-07-14T16:10:25.605Z,37.30
2023-07-14T16:12:53.908Z,36.80
2023-07-14T16:15:26.228Z,36.90
2023-07-14T16:17:56.009Z,36.40
2023-07-14T16:20:27.853Z,35.80
2023-07-14T16:22:58.553Z,35.30
2023-07-14T16:25:28.117Z,34.80
2023-07-14T16:27:56.424Z,34.20
2023-07-14T16:30:28.456Z,33.70
2023-07-14T16:32:56.841Z,33.40
2023-07-14T16:35:27.371Z,33.10
2023-07-14T16:38:03.299Z,32.80
2023-07-14T16:40:37.088Z,32.70
2023-07-14T16:43:07.771Z,32.50
2023-07-14T16:45:36.004Z,32.50
2023-07-14T16:48:04.562Z,34.30
2023-07-14T16:50:33.384Z,35.50
2023-07-14T16:53:01.983Z,36.80
2023-07-14T16:55:32.075Z,38.20
2023-07-14T16:58:02.489Z,39.30
2023-07-14T17:00:33.816Z,40.20
2023-07-14T17:03:03.746Z,40.70
2023-07-14T17:05:35.664Z,41.10
2023-07-14T17:08:06.112Z,41.50
2023-07-14T17:10:34.521Z,41.70
2023-07-14T17:13:20.389Z,41.60
2023-07-14T17:15:54.195Z,41.70
2023-07-14T17:18:25.979Z,41.60
2023-07-14T17:20:55.601Z,41.90
2023-07-14T17:23:30.779Z,42.20
2023-07-14T17:26:00.133Z,42.30
2023-07-14T17:28:30.915Z,42.40
2023-07-14T17:30:59.062Z,42.60
2023-07-14T17:33:28.834Z,42.60
2023-07-14T17:36:01.457Z,42.50
2023-07-14T17:38:32.694Z,42.10
2023-07-14T17:41:01.199Z,41.90
2023-07-14T17:43:32.877Z,41.90
2023-07-14T17:46:01.544Z,41.90
2023-07-14T17:48:29.678Z,41.80
2023-07-14T17:51:03.438Z,41.70
2023-07-14T17:53:32.539Z,41.50
2023-07-14T17:56:01.265Z,41.40
2023-07-14T17:58:30.802Z,41.50
2023-07-14T18:00:59.591Z,41.60
2023-07-14T18:03:30.880Z,41.60
2023-07-14T18:06:00.146Z,41.30
2023-07-14T18:08:30.048Z,40.70
2023-07-14T18:11:00.805Z,40.00
2023-07-14T18:13:33.239Z,39.10
2023-07-14T18:16:01.332Z,38.50
2023-07-14T18:18:29.520Z,38.10
2023-07-14T18:21:00.065Z,37.80
2023-07-14T18:23:29.941Z,37.60
2023-07-14T18:25:58.819Z,37.50
2023-07-14T18:28:30.783Z,37.30
2023-07-14T18:31:01.456Z,37.00
2023-07-14T18:33:32.466Z,36.60
2023-07-14T18:36:01.433Z,36.20
2023-07-14T18:38:31.102Z,35.90
2023-07-14T18:41:01.174Z,35.50
2023-07-14T18:43:35.604Z,35.20
2023-07-14T18:46:06.540Z,34.90
2023-07-14T18:48:36.271Z,34.50
2023-07-14T18:51:17.677Z,34.20
2023-07-14T18:53:46.492Z,33.90
2023-07-14T18:56:15.508Z,33.50
2023-07-14T18:58:44.135Z,33.20
2023-07-14T19:01:17.120Z,32.90
2023-07-14T19:03:48.595Z,32.70
2023-07-14T19:06:21.769Z,32.40
2023-07-14T19:08:50.597Z,32.10
2023-07-14T19:11:20.797Z,31.90
2023-07-14T19:13:49.539Z,31.70
2023-07-14T19:16:26.485Z,31.50
2023-07-14T19:18:55.122Z,31.40
2023-07-14T19:21:25.776Z,31.20
2023-07-14T19:23:54.034Z,31.00
2023-07-14T19:26:22.138Z,30.90
2023-07-14T19:28:50.402Z,30.70
2023-07-14T19:31:28.142Z,30.60
2023-07-14T19:33:56.857Z,30.50
2023-07-14T19:36:25.354Z,30.40
2023-07-14T19:38:53.485Z,30.30
2023-07-14T19:41:21.817Z,30.20
2023-07-14T19:43:52.270Z,30.10
2023-07-14T19:46:22.068Z,30.00
2023-07-14T19:48:50.284Z,29.90
2023-07-14T19:51:23.211Z,29.80
2023-07-14T19:53:52.044Z,29.70
2023-07-14T19:56:22.165Z,29.60
2023-07-14T19:58:50.452Z,29.50
2023-07-14T20:01:21.061Z,29.40
2023-07-14T20:03:51.252Z,29.40
2023-07-14T20:06:21.243Z,29.30
2023-07-14T20:08:54.399Z,29.20
2023-07-14T20:11:24.095Z,29.10
2023-07-14T20:13:52.613Z,29.00
2023-07-14T20:16:23.065Z,28.90
2023-07-14T20:18:52.929Z,28.80
2023-07-14T20:21:27.162Z,28.80
2023-07-14T20:23:58.752Z,28.70
2023-07-14T20:26:26.879Z,28.70
2023-07-14T20:28:55.097Z,28.60
2023-07-14T20:31:24.510Z,28.50
2023-07-14T20:33:54.820Z,28.40
2023-07-14T20:36:25.282Z,28.40
2023-07-14T20:38:54.710Z,28.30
2023-07-14T20:41:29.985Z,28.20
2023-07-14T20:43:58.623Z,28.20
2023-07-14T20:46:28.301Z,28.20
2023-07-14T20:49:14.744Z,28.20
2023-07-14T20:51:45.173Z,28.10
2023-07-14T20:54:15.545Z,28.00
2023-07-14T20:56:44.505Z,28.00
2023-07-14T20:59:12.621Z,27.90
2023-07-14T21:01:40.958Z,27.80
2023-07-14T21:04:22.371Z,27.80
2023-07-14T21:06:51.665Z,27.70
2023-07-14T21:09:20.005Z,27.60
2023-07-14T21:11:48.527Z,27.60
2023-07-14T21:14:18.224Z,27.50
2023-07-14T21:16:46.482Z,27.50
2023-07-14T21:19:15.951Z,27.50
2023-07-14T21:21:44.007Z,27.40
2023-07-14T21:24:19.368Z,27.40
2023-07-14T21:26:47.794Z,27.30
2023-07-14T21:29:18.923Z,27.20
2023-07-14T21:31:48.003Z,27.20
2023-07-14T21:34:19.816Z,27.20
2023-07-14T21:36:48.740Z,27.20
2023-07-14T21:39:21.976Z,27.10
2023-07-14T21:41:51.867Z,27.10
2023-07-14T21:44:20.562Z,27.10
2023-07-14T21:46:48.738Z,27.00
2023-07-14T21:49:19.989Z,27.00
2023-07-14T21:51:48.583Z,26.90
2023-07-14T21:54:18.234Z,26.90
2023-07-14T21:56:48.641Z,26.90
2023-07-14T21:59:19.769Z,26.80
2023-07-14T22:01:51.591Z,26.80
2023-07-14T22:04:29.725Z,26.80
2023-07-14T22:06:59.008Z,26.70
2023-07-14T22:09:27.897Z,26.60
2023-07-14T22:11:56.707Z,26.60
2023-07-14T22:14:26.446Z,26.60
2023-07-14T22:16:55.778Z,26.60
2023-07-14T22:19:25.994Z,26.50
2023-07-14T22:21:54.496Z,26.40
2023-07-14T22:24:22.675Z,26.40
2023-07-14T22:26:50.731Z,26.40
2023-07-14T22:29:18.874Z,26.40
2023-07-14T22:31:48.256Z,26.40
2023-07-14T22:34:18.982Z,26.40
2023-07-14T22:36:48.575Z,26.30
2023-07-14T22:39:20.252Z,26.30
2023-07-14T22:41:50.001Z,26.30
2023-07-14T22:44:19.323Z,26.20
2023-07-14T22:46:47.879Z,26.20
2023-07-14T22:49:16.754Z,26.20
2023-07-14T22:51:54.962Z,26.20
2023-07-14T22:54:24.351Z,26.20
2023-07-14T22:56:52.603Z,26.20
2023-07-14T22:59:20.966Z,26.10
2023-07-14T23:01:50.444Z,26.10
2023-07-14T23:04:18.743Z,26.10
2023-07-14T23:06:48.312Z,26.00
2023-07-14T23:09:16.440Z,26.00
2023-07-14T23:11:45.179Z,26.00
2023-07-14T23:14:13.950Z,26.00
2023-07-14T23:16:42.309Z,26.00
2023-07-14T23:19:11.994Z,25.90
2023-07-14T23:21:41.262Z,25.90
2023-07-14T23:24:17.238Z,25.80
2023-07-14T23:26:45.589Z,25.80
2023-07-14T23:29:13.925Z,25.90
2023-07-14T23:31:45.631Z,25.80
2023-07-14T23:34:14.569Z,25.70
2023-07-14T23:36:44.197Z,25.70
2023-07-14T23:39:13.711Z,25.70
2023-07-14T23:41:41.738Z,25.70
2023-07-14T23:44:18.169Z,25.70
2023-07-14T23:46:47.424Z,25.70
2023-07-14T23:49:15.742Z,25.70
2023-07-14T23:51:44.104Z,25.70
2023-07-14T23:54:13.575Z,25.60
2023-07-14T23:56:41.692Z,25.60
2023-07-14T23:59:10.642Z,25.60
